Time;durP1;ratioP1;P1;durP2;ratioP2;P2;SDS_P1;SDS_P2;PMS_P1;PMS_P2;Temp;Humidity;BMP_temperature;BMP_pressure;BME280_temperature;BME280_humidity;BME280_pressure;Samples;Min_cycle;Max_cycle;Signal;HPM_P1;HPM_P2
2021/06/23 00:00:31;;;;;;;8.45;3.92;;;;;;;19.19;77.76;98368.44;5017956;28;20041;-59
2021/06/23 00:02:56;;;;;;;7.30;3.75;;;;;;;19.17;77.00;98363.38;5006871;28;20033;-58
2021/06/23 00:05:22;;;;;;;8.25;3.92;;;;;;;19.18;77.02;98358.91;5015954;28;20456;-59
2021/06/23 00:07:48;;;;;;;8.35;3.72;;;;;;;19.14;77.12;98362.97;5020700;28;20948;-59
2021/06/23 00:10:15;;;;;;;8.05;3.63;;;;;;;19.08;77.34;98359.34;5017969;28;20042;-59
2021/06/23 00:12:44;;;;;;;10.73;3.63;;;;;;;19.00;77.60;98357.75;5015283;28;20041;-59
2021/06/23 00:15:14;;;;;;;11.63;4.05;;;;;;;18.88;77.02;98319.88;5020436;28;20076;-59
2021/06/23 00:17:39;;;;;;;10.75;4.30;;;;;;;18.97;76.58;98334.44;5014646;28;20029;-58
2021/06/23 00:20:06;;;;;;;7.03;3.60;;;;;;;19.12;76.29;98350.00;5016288;28;20025;-58
2021/06/23 00:22:31;;;;;;;11.70;3.35;;;;;;;19.11;75.72;98348.41;5018839;28;20092;-58
2021/06/23 00:24:57;;;;;;;9.00;3.35;;;;;;;19.11;75.35;98353.69;5010698;28;20030;-59
2021/06/23 00:27:22;;;;;;;7.85;3.40;;;;;;;19.05;75.61;98351.84;5021119;28;20032;-59
2021/06/23 00:29:48;;;;;;;6.60;3.33;;;;;;;19.12;75.86;98355.28;5004750;28;20026;-59
2021/06/23 00:32:15;;;;;;;6.90;3.47;;;;;;;18.86;75.38;98321.91;5016323;28;20037;-59
2021/06/23 00:34:41;;;;;;;6.90;3.40;;;;;;;19.04;76.18;98357.31;5017356;28;20581;-59
2021/06/23 00:37:06;;;;;;;7.03;3.40;;;;;;;18.81;75.56;98311.16;5010737;28;20038;-59
2021/06/23 00:39:31;;;;;;;7.35;3.30;;;;;;;19.06;75.57;98357.94;5013388;28;20230;-58
2021/06/23 00:41:57;;;;;;;7.95;3.35;;;;;;;18.88;75.84;98335.66;5014730;28;20036;-58
2021/06/23 00:44:23;;;;;;;6.78;3.13;;;;;;;19.00;75.94;98355.09;5029913;28;20049;-59
2021/06/23 00:46:49;;;;;;;7.80;3.45;;;;;;;19.07;75.68;98362.19;5014698;28;20029;-58
2021/06/23 00:49:14;;;;;;;5.53;2.88;;;;;;;19.07;76.47;98359.56;5020407;28;20022;-58
2021/06/23 00:51:40;;;;;;;6.20;3.63;;;;;;;19.05;75.88;98357.13;5030883;28;20029;-59
2021/06/23 00:54:13;;;;;;;8.85;3.25;;;;;;;19.07;76.67;98356.91;5017269;28;20798;-59
2021/06/23 00:56:39;;;;;;;8.57;3.50;;;;;;;18.98;77.06;98343.13;5017820;28;20057;-59
2021/06/23 00:59:06;;;;;;;7.03;3.15;;;;;;;19.02;76.75;98349.63;5030543;28;20465;-58
2021/06/23 01:01:33;;;;;;;8.13;3.22;;;;;;;18.91;77.20;98339.72;5020832;28;20728;-59
2021/06/23 01:04:02;;;;;;;8.38;3.75;;;;;;;18.92;77.32;98352.69;5016935;28;20029;-59
2021/06/23 01:06:28;;;;;;;7.20;3.15;;;;;;;18.70;77.45;98309.13;5018636;28;20049;-58
2021/06/23 01:08:54;;;;;;;9.85;3.35;;;;;;;18.68;77.19;98309.31;5017162;28;20026;-58
2021/06/23 01:11:20;;;;;;;6.90;3.10;;;;;;;18.65;77.38;98304.44;5031258;28;20030;-58
2021/06/23 01:14:02;;;;;;;7.00;3.33;;;;;;;18.66;77.46;98302.66;5018651;28;20083;-59
2021/06/23 01:16:30;;;;;;;9.82;3.70;;;;;;;18.92;77.52;98349.25;5018484;28;20514;-59
2021/06/23 01:18:57;;;;;;;7.55;3.22;;;;;;;18.60;77.32;98299.81;5003156;28;20251;-59
2021/06/23 01:21:22;;;;;;;8.25;3.50;;;;;;;18.63;77.52;98293.31;5015753;28;20033;-59
2021/06/23 01:23:48;;;;;;;7.32;3.20;;;;;;;18.92;77.09;98336.88;5022044;28;20514;-59
2021/06/23 01:26:13;;;;;;;6.38;3.10;;;;;;;18.92;76.95;98320.25;5022166;28;20060;-59
2021/06/23 01:28:39;;;;;;;7.72;3.40;;;;;;;18.87;77.26;98328.78;5023930;28;20032;-58
2021/06/23 01:31:04;;;;;;;8.82;3.47;;;;;;;18.79;77.84;98321.06;5021549;28;20041;-59
2021/06/23 01:33:30;;;;;;;9.05;3.45;;;;;;;18.55;77.85;98293.53;5022936;28;20046;-58
2021/06/23 01:35:57;;;;;;;7.10;3.28;;;;;;;18.55;77.83;98290.91;5024340;28;20132;-58
2021/06/23 01:38:22;;;;;;;6.97;3.55;;;;;;;18.74;78.45;98342.72;5023262;28;20084;-59
2021/06/23 01:40:48;;;;;;;7.25;3.63;;;;;;;18.43;79.26;98302.03;5017571;28;20030;-59
2021/06/23 01:43:14;;;;;;;9.88;3.58;;;;;;;18.64;78.96;98329.19;5020206;28;20041;-58
2021/06/23 01:45:40;;;;;;;8.00;3.92;;;;;;;18.54;78.98;98320.88;5023729;28;20029;-58
2021/06/23 01:48:06;;;;;;;9.88;3.53;;;;;;;18.43;79.14;98303.88;5019889;28;20720;-59
2021/06/23 01:50:32;;;;;;;7.30;3.60;;;;;;;18.70;78.10;98341.53;5022271;28;20029;-58
2021/06/23 01:52:57;;;;;;;7.47;3.47;;;;;;;18.70;78.47;98336.25;5017217;28;20678;-59
2021/06/23 01:55:29;;;;;;;7.03;3.28;;;;;;;18.68;78.73;98334.84;5014859;28;20029;-59
2021/06/23 01:57:57;;;;;;;9.43;3.50;;;;;;;18.71;77.58;98337.06;5018279;28;20034;-59
2021/06/23 02:00:30;;;;;;;9.43;3.47;;;;;;;18.64;78.33;98335.25;5022237;28;20109;-58
2021/06/23 02:02:58;;;;;;;8.40;3.10;;;;;;;18.70;77.12;98328.34;5020833;28;20772;-58
2021/06/23 02:05:29;;;;;;;8.93;3.17;;;;;;;18.42;76.30;98282.00;5017277;28;20126;-58
2021/06/23 02:08:24;;;;;;;6.60;3.05;;;;;;;18.77;76.53;98331.00;5010257;28;20461;-58
2021/06/23 02:11:19;;;;;;;6.88;3.17;;;;;;;18.69;75.88;98328.56;5032558;28;20434;-58
2021/06/23 02:14:03;;;;;;;5.95;2.97;;;;;;;18.44;75.97;98289.69;5012611;28;20029;-58
2021/06/23 02:16:29;;;;;;;7.63;3.13;;;;;;;18.46;75.58;98300.03;5023300;28;20048;-58
2021/06/23 02:19:02;;;;;;;8.32;3.70;;;;;;;18.66;76.02;98339.50;5021245;28;20029;-58
2021/06/23 02:21:29;;;;;;;7.13;2.97;;;;;;;18.63;76.78;98338.09;5035524;28;20472;-58
2021/06/23 02:23:55;;;;;;;7.85;3.00;;;;;;;18.29;75.92;98289.06;5015590;28;20102;-58
2021/06/23 02:26:20;;;;;;;9.27;3.25;;;;;;;18.21;76.11;98277.75;5019877;28;20069;-58
2021/06/23 02:28:46;;;;;;;6.97;2.75;;;;;;;18.60;74.47;98333.22;5022767;28;20710;-58
2021/06/23 02:31:12;;;;;;;5.28;2.60;;;;;;;18.63;74.87;98333.63;5035535;28;20516;-58
2021/06/23 02:33:38;;;;;;;6.03;2.53;;;;;;;18.30;75.59;98299.41;5032806;28;20079;-58
2021/06/23 02:36:04;;;;;;;9.25;2.67;;;;;;;18.40;75.79;98309.56;5017529;28;20037;-58
2021/06/23 02:38:29;;;;;;;5.10;2.60;;;;;;;18.60;74.91;98341.94;5019232;28;20029;-58
2021/06/23 02:40:55;;;;;;;6.97;2.90;;;;;;;18.62;73.94;98334.66;5019781;28;20029;-58
2021/06/23 02:43:20;;;;;;;6.25;2.58;;;;;;;18.60;74.05;98323.50;5017679;28;20065;-58
2021/06/23 02:45:46;;;;;;;6.38;2.85;;;;;;;18.64;74.34;98337.09;5023594;28;20029;-59
2021/06/23 02:48:11;;;;;;;7.35;2.55;;;;;;;18.69;74.61;98328.56;5020252;28;20037;-58
2021/06/23 02:50:42;;;;;;;6.93;2.75;;;;;;;18.44;74.21;98301.03;5019816;28;20033;-58
2021/06/23 02:53:08;;;;;;;7.85;2.83;;;;;;;18.61;74.32;98330.38;5018886;28;20112;-59
2021/06/23 02:55:34;;;;;;;6.57;3.15;;;;;;;18.48;74.52;98314.59;5019076;28;20029;-58
2021/06/23 02:57:59;;;;;;;5.97;2.90;;;;;;;18.29;74.84;98289.06;5016173;28;20226;-60
2021/06/23 03:00:25;;;;;;;8.20;2.88;;;;;;;18.23;75.06;98288.06;5020557;28;20708;-58
2021/06/23 03:02:50;;;;;;;6.22;2.72;;;;;;;18.47;75.86;98335.84;5027052;28;20053;-58
2021/06/23 03:05:16;;;;;;;7.78;2.97;;;;;;;18.50;75.18;98331.00;5022296;28;20036;-59
2021/06/23 03:07:44;;;;;;;5.60;2.75;;;;;;;18.49;75.45;98329.41;5016895;28;20040;-58
2021/06/23 03:10:12;;;;;;;8.85;3.08;;;;;;;18.37;76.13;98331.00;5016965;28;20120;-59
2021/06/23 03:12:38;;;;;;;7.28;2.70;;;;;;;18.37;75.46;98321.28;5018298;28;20017;-58
2021/06/23 03:15:06;;;;;;;7.03;3.20;;;;;;;18.43;75.62;98330.97;5016068;28;20452;-58
2021/06/23 03:17:32;;;;;;;12.23;2.67;;;;;;;18.33;75.30;98319.25;5015933;28;20025;-58
2021/06/23 03:19:57;;;;;;;6.85;2.83;;;;;;;18.13;75.00;98291.09;5021829;28;20044;-59
2021/06/23 03:22:23;;;;;;;8.93;2.88;;;;;;;18.37;75.01;98331.81;5014062;28;20022;-58
2021/06/23 03:24:50;;;;;;;6.50;3.20;;;;;;;18.43;75.45;98335.44;5017241;28;20551;-59
2021/06/23 03:27:15;;;;;;;6.40;2.80;;;;;;;18.36;75.73;98335.47;5014613;28;20022;-58
2021/06/23 03:29:41;;;;;;;6.75;2.80;;;;;;;18.20;76.71;98331.41;5018343;28;20052;-58
2021/06/23 03:32:08;;;;;;;6.35;2.80;;;;;;;18.08;75.94;98292.72;5017175;28;20472;-59
2021/06/23 03:34:34;;;;;;;7.32;2.58;;;;;;;18.30;75.62;98327.56;5020360;28;20091;-59
2021/06/23 03:37:00;;;;;;;9.57;3.10;;;;;;;18.41;75.03;98334.84;5014148;28;20050;-58
2021/06/23 03:39:25;;;;;;;8.05;2.95;;;;;;;18.34;75.16;98341.91;5017719;28;20037;-59
2021/06/23 03:41:50;;;;;;;6.00;3.08;;;;;;;18.29;76.70;98334.66;5018633;28;20036;-58
2021/06/23 03:44:16;;;;;;;7.03;3.40;;;;;;;18.29;76.63;98339.06;5016512;28;20029;-58
2021/06/23 03:46:41;;;;;;;8.93;3.17;;;;;;;18.26;77.52;98337.66;5019142;28;20487;-58
2021/06/23 03:49:07;;;;;;;6.78;2.80;;;;;;;18.34;77.48;98342.72;5013763;28;20025;-58
2021/06/23 03:51:32;;;;;;;8.10;3.30;;;;;;;18.33;77.85;98350.84;5022633;28;20057;-58
2021/06/23 03:53:58;;;;;;;7.18;3.13;;;;;;;18.30;77.67;98349.41;5019002;28;20461;-58
2021/06/23 03:56:23;;;;;;;8.63;3.08;;;;;;;18.27;77.68;98357.69;5019567;28;20114;-58
2021/06/23 03:58:49;;;;;;;6.63;3.70;;;;;;;18.33;77.56;98362.19;5019535;28;20133;-59
2021/06/23 04:01:14;;;;;;;6.68;3.38;;;;;;;18.33;77.73;98356.91;5021665;28;20033;-59
2021/06/23 04:03:40;;;;;;;6.80;3.38;;;;;;;18.09;78.30;98334.63;5015629;28;20068;-58
2021/06/23 04:06:06;;;;;;;6.47;3.55;;;;;;;17.84;78.29;98302.75;5020947;28;20209;-58
2021/06/23 04:08:31;;;;;;;7.55;3.67;;;;;;;18.37;77.96;98370.47;5016961;28;20036;-58
2021/06/23 04:10:56;;;;;;;6.28;3.22;;;;;;;18.35;78.01;98380.41;5019541;28;20029;-58
2021/06/23 04:13:22;;;;;;;7.95;3.00;;;;;;;18.34;77.66;98382.19;5020892;28;20108;-59
2021/06/23 04:15:47;;;;;;;7.47;3.10;;;;;;;18.30;77.18;98380.19;5018869;28;20037;-58
2021/06/23 04:18:13;;;;;;;6.13;3.00;;;;;;;18.31;76.88;98382.63;5020194;28;20494;-59
2021/06/23 04:20:38;;;;;;;6.35;2.63;;;;;;;18.41;76.37;98390.13;5017802;28;20044;-59
2021/06/23 04:23:04;;;;;;;7.20;3.15;;;;;;;18.40;76.71;98388.50;5020526;28;20079;-59
2021/06/23 04:25:29;;;;;;;7.03;3.33;;;;;;;18.31;77.79;98397.59;5019136;28;20030;-59
2021/06/23 04:27:55;;;;;;;7.93;3.05;;;;;;;18.37;77.60;98397.59;5021728;28;20467;-59
2021/06/23 04:30:21;;;;;;;5.45;2.80;;;;;;;18.36;77.33;98396.00;5020386;28;20032;-59
2021/06/23 04:32:46;;;;;;;9.15;3.00;;;;;;;18.34;77.48;98399.81;5019089;28;20080;-59
2021/06/23 04:35:12;;;;;;;8.82;3.17;;;;;;;18.28;78.33;98400.63;5019632;28;20063;-59
2021/06/23 04:37:40;;;;;;;8.13;3.50;;;;;;;18.25;77.96;98405.28;5016800;28;20092;-59
2021/06/23 04:40:10;;;;;;;6.88;3.13;;;;;;;18.30;77.69;98395.97;5021117;28;20029;-59
2021/06/23 04:42:36;;;;;;;8.55;3.10;;;;;;;18.30;78.05;98401.25;5003682;28;20059;-59
2021/06/23 04:45:04;;;;;;;9.27;3.35;;;;;;;18.24;78.39;98395.75;5016488;28;20029;-59
2021/06/23 04:47:30;;;;;;;9.35;3.45;;;;;;;18.03;78.87;98359.91;5022385;28;20037;-58
2021/06/23 04:49:55;;;;;;;10.63;3.45;;;;;;;18.25;79.07;98405.28;5009018;28;20435;-58
2021/06/23 04:52:21;;;;;;;7.00;3.33;;;;;;;18.21;79.12;98388.25;5020140;28;20430;-59
2021/06/23 04:54:46;;;;;;;7.43;3.30;;;;;;;18.27;78.93;98405.06;5018099;28;20033;-59
2021/06/23 04:57:11;;;;;;;7.43;3.60;;;;;;;18.22;78.96;98403.03;5014794;28;20048;-59
2021/06/23 04:59:37;;;;;;;7.97;3.47;;;;;;;18.21;79.16;98414.56;5011717;28;20045;-59
2021/06/23 05:02:02;;;;;;;7.35;3.55;;;;;;;18.27;78.94;98412.16;5022061;28;20116;-59
2021/06/23 05:04:28;;;;;;;8.07;3.30;;;;;;;18.35;78.45;98412.78;5021970;28;20036;-59
2021/06/23 05:06:53;;;;;;;7.57;3.17;;;;;;;18.01;78.26;98363.72;5018801;28;20102;-59
2021/06/23 05:09:19;;;;;;;7.82;3.13;;;;;;;18.34;78.22;98415.63;5021245;28;20461;-59
2021/06/23 05:11:45;;;;;;;8.40;3.67;;;;;;;18.32;78.10;98420.28;5022716;28;20035;-58
2021/06/23 05:14:11;;;;;;;5.93;3.20;;;;;;;18.38;77.67;98419.47;5020579;28;20036;-59
2021/06/23 05:16:38;;;;;;;14.10;3.50;;;;;;;18.31;77.72;98419.47;5023318;28;20292;-59
2021/06/23 05:19:04;;;;;;;6.53;3.33;;;;;;;18.40;76.96;98426.16;5021189;28;20100;-59
2021/06/23 05:21:36;;;;;;;10.23;2.95;;;;;;;18.22;76.51;98387.25;5020118;28;20045;-59
2021/06/23 05:24:02;;;;;;;6.07;2.78;;;;;;;18.32;74.97;98386.84;5018306;28;20025;-59
2021/06/23 05:26:29;;;;;;;7.00;3.05;;;;;;;18.61;74.53;98425.16;5021392;28;20087;-59
2021/06/23 05:28:54;;;;;;;7.30;2.90;;;;;;;18.60;73.45;98425.38;5018190;28;20026;-59
2021/06/23 05:31:20;;;;;;;6.20;2.63;;;;;;;18.54;73.84;98415.66;5022267;28;20053;-59
2021/06/23 05:33:45;;;;;;;5.50;2.90;;;;;;;18.51;73.85;98395.81;5020038;28;20124;-58
2021/06/23 05:36:11;;;;;;;5.25;2.70;;;;;;;18.74;74.49;98432.28;5017316;28;20060;-59
2021/06/23 05:38:36;;;;;;;6.30;2.70;;;;;;;18.80;72.05;98433.28;5016290;28;20112;-59
2021/06/23 05:41:02;;;;;;;6.70;2.50;;;;;;;18.85;72.02;98441.44;5020058;28;20079;-59
2021/06/23 05:43:27;;;;;;;8.35;2.80;;;;;;;18.89;70.96;98439.19;5018316;28;20033;-59
2021/06/23 05:45:53;;;;;;;7.35;2.15;;;;;;;18.62;71.21;98397.84;5021780;28;20392;-59
2021/06/23 05:48:19;;;;;;;6.60;2.63;;;;;;;18.87;71.18;98441.22;5018341;28;20077;-57
2021/06/23 05:50:45;;;;;;;6.43;2.42;;;;;;;18.80;70.90;98436.75;5025822;28;20544;-59
2021/06/23 05:53:11;;;;;;;16.67;3.25;;;;;;;18.83;71.61;98435.56;5024031;28;20037;-58
2021/06/23 05:55:39;;;;;;;15.45;3.28;;;;;;;18.64;70.95;98410.81;5016876;28;20040;-59
2021/06/23 05:58:04;;;;;;;10.70;3.15;;;;;;;18.95;70.77;98449.75;5018545;28;20025;-59
2021/06/23 06:00:29;;;;;;;14.40;4.22;;;;;;;18.66;72.22;98377.19;5014718;28;20034;-59
2021/06/23 06:02:55;;;;;;;14.45;3.92;;;;;;;19.16;71.95;98447.91;5023887;28;21022;-59
2021/06/23 06:05:20;;;;;;;5.65;2.30;;;;;;;19.12;70.10;98452.78;5017818;28;20087;-59
2021/06/23 06:07:48;;;;;;;11.07;2.80;;;;;;;19.19;70.87;98450.16;5034805;28;20140;-59
2021/06/23 06:10:13;;;;;;;6.35;2.10;;;;;;;19.15;68.93;98451.56;5018984;28;20079;-59
2021/06/23 06:12:39;;;;;;;5.47;2.40;;;;;;;18.97;68.20;98415.31;5015988;28;20026;-59
2021/06/23 06:15:06;;;;;;;7.10;2.55;;;;;;;19.24;69.83;98458.25;5016677;28;20112;-59
2021/06/23 06:17:31;;;;;;;6.32;2.60;;;;;;;19.04;71.28;98423.19;5017432;28;20040;-59
2021/06/23 06:19:57;;;;;;;6.35;2.38;;;;;;;18.89;69.05;98434.75;5023553;28;20033;-59
2021/06/23 06:22:24;;;;;;;6.00;2.53;;;;;;;19.13;70.04;98461.50;5017838;28;20058;-59
2021/06/23 06:24:49;;;;;;;7.75;2.30;;;;;;;19.13;69.59;98453.59;5023157;28;20017;-59
2021/06/23 06:27:15;;;;;;;7.05;2.40;;;;;;;19.14;70.13;98442.03;5019246;28;20025;-58
2021/06/23 06:29:40;;;;;;;6.05;2.33;;;;;;;19.26;68.36;98466.78;5018750;28;20136;-59
2021/06/23 06:32:06;;;;;;;6.03;2.40;;;;;;;19.25;69.39;98465.13;5018723;28;20026;-59
2021/06/23 06:34:31;;;;;;;7.20;2.28;;;;;;;19.33;69.20;98467.56;5018161;28;20091;-59
2021/06/23 06:36:56;;;;;;;5.30;2.50;;;;;;;19.34;68.64;98469.19;5018975;28;20163;-60
2021/06/23 06:39:22;;;;;;;12.15;3.35;;;;;;;19.27;69.03;98463.09;5021258;28;20084;-59
2021/06/23 06:41:47;;;;;;;8.98;2.75;;;;;;;19.27;69.65;98464.94;5015595;28;20648;-60
2021/06/23 06:44:13;;;;;;;7.88;2.70;;;;;;;19.18;68.90;98465.16;5017141;28;20175;-59
2021/06/23 06:46:38;;;;;;;7.85;2.60;;;;;;;19.24;69.28;98468.81;5015680;28;20033;-59
2021/06/23 06:49:04;;;;;;;7.32;2.50;;;;;;;19.10;70.35;98430.28;5018601;28;20100;-59
2021/06/23 06:51:30;;;;;;;7.35;2.50;;;;;;;19.20;69.41;98463.13;5022804;28;20401;-59
2021/06/23 06:53:55;;;;;;;6.45;2.65;;;;;;;19.19;69.46;98461.50;5016529;28;20037;-59
2021/06/23 06:56:21;;;;;;;6.32;2.30;;;;;;;19.21;69.40;98456.81;5016202;28;20029;-59
2021/06/23 06:58:46;;;;;;;6.65;2.60;;;;;;;19.28;69.44;98464.75;5018900;28;20099;-59
2021/06/23 07:01:12;;;;;;;6.38;2.40;;;;;;;19.20;69.46;98470.19;5016992;28;20083;-59
2021/06/23 07:03:37;;;;;;;6.53;2.70;;;;;;;19.05;68.58;98444.06;5020572;28;20033;-59
2021/06/23 07:06:02;;;;;;;5.88;2.58;;;;;;;19.29;68.57;98474.25;5016463;28;20068;-59
2021/06/23 07:08:28;;;;;;;10.00;2.72;;;;;;;19.37;69.59;98474.06;5013409;28;20041;-59
2021/06/23 07:10:54;;;;;;;9.27;2.80;;;;;;;19.27;68.86;98475.47;5014861;28;20048;-59
2021/06/23 07:13:20;;;;;;;21.15;3.58;;;;;;;19.32;68.03;98470.41;5017790;28;20059;-59
2021/06/23 07:15:45;;;;;;;20.30;3.55;;;;;;;19.33;67.84;98474.66;5017047;28;20029;-60
2021/06/23 07:18:10;;;;;;;13.30;3.20;;;;;;;19.40;67.58;98480.72;5009523;28;20563;-59
2021/06/23 07:20:36;;;;;;;11.38;2.85;;;;;;;19.38;68.04;98475.69;5016494;28;20021;-59
2021/06/23 07:23:01;;;;;;;6.57;2.50;;;;;;;19.34;67.78;98469.19;5019117;28;20045;-59
2021/06/23 07:25:27;;;;;;;5.70;2.30;;;;;;;19.33;67.19;98462.31;5015570;28;20034;-60
2021/06/23 07:27:52;;;;;;;9.45;2.50;;;;;;;19.20;66.96;98428.03;5016965;28;20043;-59
2021/06/23 07:30:18;;;;;;;8.07;2.40;;;;;;;19.43;66.80;98471.63;5018221;28;20029;-59
2021/06/23 07:37:54;;;;;;;6.13;2.53;;;;;;;19.21;65.75;98419.13;5020713;28;20048;-59
2021/06/23 07:40:27;;;;;;;7.07;2.28;;;;;;;19.44;64.97;98433.69;5015230;28;20032;-59
2021/06/23 07:42:52;;;;;;;6.57;2.08;;;;;;;20.30;63.12;98470.34;5018279;28;20040;-59
2021/06/23 07:45:19;;;;;;;7.18;2.72;;;;;;;20.68;61.22;98434.38;5018781;28;20021;-59
2021/06/23 07:47:44;;;;;;;5.85;2.25;;;;;;;21.21;59.60;98460.41;5017524;28;20029;-59
2021/06/23 07:50:11;;;;;;;6.53;2.15;;;;;;;21.64;58.79;98464.88;5017266;28;20049;-59
2021/06/23 07:52:53;;;;;;;7.00;2.42;;;;;;;21.91;58.22;98456.66;5020032;28;20033;-59
2021/06/23 08:09:36;;;;;;;9.00;2.10;;;;;;;23.70;52.71;98447.00;4976161;28;20038;-59
2021/06/23 08:12:52;;;;;;;6.13;1.88;;;;;;;23.83;51.59;98443.31;4975978;28;20046;-59
2021/06/23 08:14:52;;;;;;;4.93;2.03;;;;;;;23.95;51.33;98446.75;4999448;28;20037;-59
2021/06/23 08:17:17;;;;;;;5.43;2.10;;;;;;;24.14;51.32;98443.91;5012500;28;20425;-59
2021/06/23 08:19:43;;;;;;;7.38;2.20;;;;;;;24.10;51.14;98451.56;5020170;28;20096;-59
2021/06/23 08:22:11;;;;;;;6.03;2.28;;;;;;;24.21;50.23;98449.09;5012297;28;20554;-59
2021/06/23 08:24:38;;;;;;;6.93;2.30;;;;;;;24.27;50.29;98438.31;5015782;28;20033;-60
2021/06/23 08:27:05;;;;;;;7.45;2.70;;;;;;;24.47;49.81;98442.38;5020969;28;20053;-59
2021/06/23 08:29:30;;;;;;;7.22;1.80;;;;;;;24.51;48.73;98409.75;5017580;28;20051;-59
2021/06/23 08:31:55;;;;;;;7.50;2.28;;;;;;;25.31;47.36;98441.63;5020605;28;20102;-60
2021/06/23 08:34:22;;;;;;;6.05;2.10;;;;;;;25.30;47.89;98442.69;5022409;28;20135;-59
2021/06/23 08:36:47;;;;;;;5.55;1.90;;;;;;;25.56;46.38;98441.19;5022368;28;20095;-59
2021/06/23 08:39:13;;;;;;;10.20;2.08;;;;;;;25.51;46.46;98439.25;5016333;28;20033;-60
2021/06/23 08:41:38;;;;;;;7.70;2.10;;;;;;;25.73;46.91;98432.34;5040617;28;20017;-60
2021/06/23 08:44:04;;;;;;;7.70;2.35;;;;;;;25.85;46.54;98433.81;5023744;28;20480;-59
2021/06/23 08:46:30;;;;;;;7.60;2.15;;;;;;;26.00;45.94;98414.56;5023466;28;20026;-59
2021/06/23 08:48:57;;;;;;;4.90;1.70;;;;;;;26.19;44.90;98422.22;5013095;28;20033;-60
2021/06/23 08:51:25;;;;;;;5.20;2.22;;;;;;;26.22;46.05;98421.72;5018753;28;20025;-60
2021/06/23 08:53:50;;;;;;;5.97;1.95;;;;;;;26.36;45.08;98422.09;5010919;28;20033;-60
2021/06/23 08:56:16;;;;;;;6.90;2.20;;;;;;;26.20;46.79;98427.28;5016347;28;20029;-59
2021/06/23 08:58:42;;;;;;;5.07;2.05;;;;;;;26.64;45.83;98421.06;5007482;28;20034;-60
2021/06/23 09:01:07;;;;;;;7.57;2.10;;;;;;;26.89;43.59;98382.31;5021937;28;20025;-60
2021/06/23 09:04:01;;;;;;;5.70;1.92;;;;;;;27.69;41.57;98419.59;5021034;28;20022;-60
2021/06/23 09:06:47;;;;;;;6.15;2.10;;;;;;;27.41;42.38;98368.22;5017345;28;20107;-60
2021/06/23 09:09:22;;;;;;;10.13;1.80;;;;;;;28.10;40.50;98423.22;5004046;28;20653;-59
2021/06/23 09:11:50;;;;;;;5.95;1.90;;;;;;;28.41;36.81;98422.50;5020644;28;20033;-60
2021/06/23 09:14:17;;;;;;;5.22;1.95;;;;;;;28.87;39.22;98420.63;5008736;28;20109;-59
2021/06/23 09:17:16;;;;;;;6.50;2.10;;;;;;;27.69;40.22;98416.91;5034111;28;20017;-60
2021/06/23 09:19:48;;;;;;;4.32;1.90;;;;;;;27.50;41.06;98419.25;5009874;28;20123;-59
2021/06/23 09:22:45;;;;;;;8.15;2.60;;;;;;;27.51;41.35;98416.34;5013657;28;20330;-59
2021/06/23 09:25:10;;;;;;;8.63;1.75;;;;;;;27.84;39.68;98422.34;5000630;28;20845;-59
2021/06/23 09:27:44;;;;;;;6.00;1.90;;;;;;;27.37;42.15;98421.31;5011271;28;20100;-59
2021/06/23 09:30:38;;;;;;;6.75;2.00;;;;;;;27.92;41.61;98426.41;5015952;28;20404;-59
2021/06/23 09:33:08;;;;;;;5.03;1.95;;;;;;;27.85;43.12;98409.78;5012850;28;20033;-59
2021/06/23 09:35:34;;;;;;;6.38;2.20;;;;;;;27.67;44.01;98417.19;5029220;28;20578;-59
2021/06/23 09:37:59;;;;;;;5.32;2.10;;;;;;;26.93;46.36;98381.53;5013630;28;20468;-59
2021/06/23 09:40:29;;;;;;;6.18;2.13;;;;;;;27.26;46.86;98403.66;5005322;28;20045;-59
2021/06/23 09:42:56;;;;;;;;;;;;;;;27.69;42.13;98412.41;5012246;28;20054;-59
2021/06/23 09:45:23;;;;;;;5.72;2.10;;;;;;;27.33;44.01;98371.41;5013756;28;19921;-60
2021/06/23 09:47:49;;;;;;;7.70;2.25;;;;;;;27.51;44.46;98410.16;5001128;28;20446;-59
2021/06/23 09:50:21;;;;;;;7.50;2.35;;;;;;;27.38;43.92;98400.75;5031308;28;20033;-60
2021/06/23 09:53:09;;;;;;;7.75;2.17;;;;;;;27.97;43.38;98395.16;5014653;28;20028;-59
2021/06/23 09:55:43;;;;;;;5.55;2.25;;;;;;;27.78;42.93;98408.16;5003918;28;20041;-59
2021/06/23 09:58:13;;;;;;;5.90;2.53;;;;;;;27.80;42.68;98400.69;5024026;28;20147;-59
2021/06/23 10:01:05;;;;;;;9.00;2.67;;;;;;;28.07;39.66;98396.22;5018961;28;20383;-60
2021/06/23 10:03:34;;;;;;;7.45;2.47;;;;;;;28.13;39.30;98397.84;5012245;28;20515;-60
2021/06/23 10:06:20;;;;;;;;;;;;;;;28.30;39.15;98393.06;5013640;28;20149;-59
2021/06/23 10:08:46;;;;;;;8.43;2.58;;;;;;;28.08;39.79;98387.97;5012971;28;19967;-59
2021/06/23 10:11:11;;;;;;;8.68;2.80;;;;;;;27.89;39.85;98363.59;5009048;28;20037;-59
2021/06/23 10:13:37;;;;;;;6.97;2.30;;;;;;;27.60;40.49;98385.38;5013869;28;20554;-59
2021/06/23 10:16:03;;;;;;;7.15;2.45;;;;;;;27.46;40.72;98378.13;5037190;28;20033;-59
2021/06/23 10:18:29;;;;;;;8.90;2.50;;;;;;;27.30;40.80;98385.25;5012475;28;20034;-59
2021/06/23 10:20:54;;;;;;;7.93;2.83;;;;;;;27.14;41.86;98389.66;5018731;28;20033;-59
2021/06/23 10:23:20;;;;;;;9.27;2.80;;;;;;;26.95;41.57;98390.09;5018917;28;20445;-59
2021/06/23 10:25:45;;;;;;;6.72;2.65;;;;;;;26.79;41.68;98356.38;5011831;28;20060;-59
2021/06/23 10:28:11;;;;;;;9.90;2.80;;;;;;;26.82;42.05;98386.00;5014295;28;20110;-59
2021/06/23 10:30:37;;;;;;;5.72;2.45;;;;;;;26.94;42.87;98380.50;5019300;28;20045;-59
2021/06/23 10:33:03;;;;;;;7.43;2.70;;;;;;;26.96;42.81;98391.72;5016406;28;20033;-59
2021/06/23 10:35:29;;;;;;;8.57;2.97;;;;;;;26.63;43.40;98368.78;5019403;28;20029;-59
2021/06/23 10:37:55;;;;;;;10.95;2.90;;;;;;;26.84;43.22;98396.41;5021886;28;20448;-59
2021/06/23 10:40:21;;;;;;;9.13;2.90;;;;;;;26.82;44.40;98386.00;5015855;28;20049;-59
2021/06/23 10:42:47;;;;;;;12.20;3.25;;;;;;;26.96;43.89;98394.38;5022029;28;20036;-59
2021/06/23 10:45:13;;;;;;;11.10;3.10;;;;;;;26.95;44.13;98398.09;5028209;28;20029;-60
2021/06/23 10:47:41;;;;;;;10.07;3.28;;;;;;;26.94;44.08;98390.34;5013959;28;20378;-60
2021/06/23 10:50:32;;;;;;;9.48;2.95;;;;;;;26.91;43.67;98394.34;5013817;28;20079;-59
2021/06/23 10:52:58;;;;;;;9.70;3.13;;;;;;;27.12;43.91;98386.47;5012652;28;20045;-59
2021/06/23 10:55:23;;;;;;;9.73;3.22;;;;;;;27.13;44.25;98396.88;5016240;28;20028;-59
2021/06/23 10:57:50;;;;;;;8.02;2.92;;;;;;;27.08;43.99;98396.03;5016881;28;20403;-59
2021/06/23 11:00:18;;;;;;;7.82;3.28;;;;;;;27.02;43.63;98405.88;5017019;28;20099;-59
2021/06/23 11:02:49;;;;;;;9.97;3.27;;;;;;;27.13;44.03;98402.22;5021467;28;20535;-59
2021/06/23 11:05:16;;;;;;;12.05;3.50;;;;;;;27.18;44.29;98404.91;5010297;28;20326;-59
2021/06/23 11:07:52;;;;;;;10.63;3.40;;;;;;;27.27;42.18;98399.94;5016921;28;20254;-59
2021/06/23 11:10:26;;;;;;;8.02;3.08;;;;;;;27.23;43.05;98391.59;5011673;28;20034;-59
2021/06/23 11:12:57;;;;;;;8.15;3.20;;;;;;;27.04;41.59;98350.41;5014810;28;20052;-60
2021/06/23 11:15:28;;;;;;;10.65;3.20;;;;;;;27.20;41.92;98376.09;5010824;28;20333;-59
2021/06/23 11:17:55;;;;;;;5.88;2.72;;;;;;;27.22;41.96;98387.31;5006050;28;20109;-60
2021/06/23 11:20:20;;;;;;;8.20;3.30;;;;;;;27.29;42.82;98395.13;5017876;28;20037;-59
2021/06/23 11:22:58;;;;;;;9.95;3.10;;;;;;;27.15;42.30;98365.41;5015071;28;20809;-59
2021/06/23 11:25:27;;;;;;;8.77;2.85;;;;;;;27.21;42.00;98374.22;5020377;28;20121;-59
2021/06/23 11:28:08;;;;;;;8.75;2.88;;;;;;;27.44;42.15;98410.41;5013940;28;20032;-60
2021/06/23 11:31:00;;;;;;;9.73;3.08;;;;;;;27.51;42.45;98402.97;5016607;28;20322;-62
2021/06/23 11:33:28;;;;;;;9.23;3.10;;;;;;;27.12;41.88;98381.13;5028737;28;20041;-61
2021/06/23 11:35:58;;;;;;;9.47;3.90;;;;;;;27.28;42.54;98403.41;5020716;28;20063;-62
2021/06/23 11:38:24;;;;;;;11.50;3.70;;;;;;;27.37;42.20;98407.97;5011110;28;20025;-62
2021/06/23 11:40:51;;;;;;;9.80;3.45;;;;;;;27.12;41.95;98365.09;5000654;28;20030;-61
2021/06/23 11:43:16;;;;;;;11.45;4.30;;;;;;;27.32;42.06;98391.94;5018645;28;20100;-61
2021/06/23 11:45:42;;;;;;;11.80;3.50;;;;;;;27.36;42.45;98385.03;5011886;28;20033;-61
2021/06/23 11:48:08;;;;;;;7.35;2.83;;;;;;;27.17;42.04;98359.81;5018807;28;20449;-61
2021/06/23 11:50:33;;;;;;;7.53;3.17;;;;;;;27.26;41.82;98379.63;5019229;28;20491;-61
2021/06/23 11:52:58;;;;;;;8.95;3.10;;;;;;;27.32;41.35;98375.13;5019116;28;20091;-61
2021/06/23 11:55:25;;;;;;;9.50;3.20;;;;;;;27.23;41.37;98369.44;5018084;28;20483;-61